Terminal Aerodrome Forecast
Issued by NWS

Home | Current Version | Previous Version | Text Only | Print | Product List | Glossary On
Versions: 1 2 3 4 5 6 7 8 9 10 11 12 13 14 15 16 17 18 19 20 21 22 23 24 25 26 27 28 29 30 31 32
000
FTUS43 KLOT 302300
TAFMDW
TAF
KMDW 302322Z 3100/3124 25011G16KT P6SM FEW040 SCT300
     FM310100 23007KT P6SM SCT300
     FM310500 VRB03KT 6SM BCFG SCT300
     FM311600 20006KT P6SM SCT030=

USA.gov is the U.S. government's official web portal to all federal, state and local government web resources and services.